createdAt,value
2019-04-20T00:00:06.140Z,1023.4
2019-04-20T00:01:05.219Z,1023.4
2019-04-20T00:02:13.859Z,1023.4
2019-04-20T00:03:07.668Z,1023.4
2019-04-20T00:04:10.763Z,1023.4
2019-04-20T00:05:09.931Z,1023.4
2019-04-20T00:06:11.540Z,1023.4
2019-04-20T00:07:14.174Z,1023.4
2019-04-20T00:08:20.066Z,1023.3
2019-04-20T00:09:21.335Z,1023.4
2019-04-20T00:10:20.886Z,1023.3
2019-04-20T00:11:25.738Z,1023.4
2019-04-20T00:12:33.623Z,1023.4
2019-04-20T00:13:29.047Z,1023.3
2019-04-20T00:14:27.701Z,1023.4
2019-04-20T00:15:24.494Z,1023.3
2019-04-20T00:16:27.116Z,1023.3
2019-04-20T00:17:28.701Z,1023.3
2019-04-20T00:18:34.715Z,1023.4
2019-04-20T00:19:37.384Z,1023.3
2019-04-20T00:20:35.361Z,1023.3
2019-04-20T00:21:35.310Z,1023.3
2019-04-20T00:22:40.905Z,1023.3
2019-04-20T00:23:40.433Z,1023.3
2019-04-20T00:24:39.306Z,1023.3
2019-04-20T00:25:52.239Z,1023.3
2019-04-20T00:27:15.858Z,1023.2
2019-04-20T00:28:01.394Z,1023.2
2019-04-20T00:29:02.700Z,1023.2
2019-04-20T00:30:00.346Z,1023.3
2019-04-20T00:31:07.231Z,1023.3
2019-04-20T00:32:03.003Z,1023.2
2019-04-20T00:33:01.997Z,1023.2
2019-04-20T00:34:06.131Z,1023.1
2019-04-20T00:34:55.776Z,1023.3
2019-04-20T00:35:56.959Z,1023.2
2019-04-20T00:36:58.155Z,1023.2
2019-04-20T00:37:59.162Z,1023.3
2019-04-20T00:39:03.757Z,1023.2
2019-04-20T00:40:01.821Z,1023.2
2019-04-20T00:41:07.591Z,1023.2
2019-04-20T00:42:08.094Z,1023.2
2019-04-20T00:43:06.664Z,1023.2
2019-04-20T00:44:13.304Z,1023.2
2019-04-20T00:45:17.988Z,1023.2
2019-04-20T00:46:19.550Z,1023.1
2019-04-20T00:47:28.373Z,1023.2
2019-04-20T00:48:22.414Z,1023.1
2019-04-20T00:49:30.699Z,1023.2
2019-04-20T00:50:35.815Z,1023.1
2019-04-20T00:51:39.466Z,1023.1
2019-04-20T00:52:31.134Z,1023.1
2019-04-20T00:53:30.362Z,1023.1
2019-04-20T00:54:22.224Z,1023.1
2019-04-20T00:55:23.392Z,1023.1
2019-04-20T00:56:24.984Z,1023.2
2019-04-20T00:57:39.326Z,1023.2
2019-04-20T00:58:35.241Z,1023.2
2019-04-20T00:59:42.911Z,1023.1
2019-04-20T01:00:52.183Z,1023.2
2019-04-20T01:01:52.631Z,1023.1
2019-04-20T01:02:43.508Z,1023.2
2019-04-20T01:03:52.701Z,1023.1
2019-04-20T01:04:56.560Z,1023.1
2019-04-20T01:06:04.287Z,1023.1
2019-04-20T01:06:54.166Z,1023.2
2019-04-20T01:07:46.815Z,1023.2
2019-04-20T01:08:42.301Z,1023.2
2019-04-20T01:09:43.672Z,1023.2
2019-04-20T01:10:49.093Z,1023.2
2019-04-20T01:11:48.197Z,1023.1
2019-04-20T01:12:53.520Z,1023.2
2019-04-20T01:13:55.037Z,1023.1
2019-04-20T01:14:55.950Z,1023.1
2019-04-20T01:15:58.792Z,1023.2
2019-04-20T01:16:58.843Z,1023.2
2019-04-20T01:17:55.561Z,1023.2
2019-04-20T01:18:57.112Z,1023.2
2019-04-20T01:19:58.507Z,1023.2
2019-04-20T01:21:06.873Z,1023.2
2019-04-20T01:22:06.631Z,1023.2
2019-04-20T01:23:07.523Z,1023.1
2019-04-20T01:24:07.870Z,1023.1
2019-04-20T01:25:16.533Z,1023.2
2019-04-20T01:26:11.534Z,1023.2
2019-04-20T01:27:25.902Z,1023.2
2019-04-20T01:28:27.854Z,1023.2
2019-04-20T01:29:21.799Z,1023.2
2019-04-20T01:30:20.909Z,1023.2
2019-04-20T01:31:25.347Z,1023.2
2019-04-20T01:32:23.234Z,1023.2
2019-04-20T01:33:32.082Z,1023.2
2019-04-20T01:34:32.234Z,1023.2
2019-04-20T01:35:35.533Z,1023.2
2019-04-20T01:36:42.493Z,1023.2
2019-04-20T01:37:34.270Z,1023.2
2019-04-20T01:38:42.737Z,1023.2
2019-04-20T01:39:32.053Z,1023.2
2019-04-20T01:40:27.484Z,1023.2
2019-04-20T01:41:28.672Z,1023.2
2019-04-20T01:42:30.070Z,1023.2
2019-04-20T01:43:31.447Z,1023.2
2019-04-20T01:44:38.494Z,1023.2
2019-04-20T01:45:37.656Z,1023.2
2019-04-20T01:46:39.169Z,1023.3
2019-04-20T01:47:43.447Z,1023.2
2019-04-20T01:48:39.887Z,1023.3
2019-04-20T01:49:40.745Z,1023.3
2019-04-20T01:50:49.952Z,1023.2
2019-04-20T01:51:52.503Z,1023.3
2019-04-20T01:52:56.879Z,1023.2
2019-04-20T01:54:03.906Z,1023.2
2019-04-20T01:55:04.794Z,1023.2
2019-04-20T01:56:01.530Z,1023.2
2019-04-20T01:56:59.711Z,1023.2
2019-04-20T01:58:08.773Z,1023.2
2019-04-20T01:59:10.563Z,1023.2
2019-04-20T02:00:03.585Z,1023.3
2019-04-20T02:00:57.275Z,1023.3
2019-04-20T02:02:04.049Z,1023.2
2019-04-20T02:03:01.400Z,1023.2
2019-04-20T02:04:01.911Z,1023.3
2019-04-20T02:05:11.397Z,1023.3
2019-04-20T02:06:08.360Z,1023.3
2019-04-20T02:07:06.716Z,1023.3
2019-04-20T02:08:08.730Z,1023.3
2019-04-20T02:09:13.658Z,1023.3
2019-04-20T02:10:10.539Z,1023.3
2019-04-20T02:11:17.827Z,1023.3
2019-04-20T02:12:18.240Z,1023.3
2019-04-20T02:13:13.037Z,1023.3
2019-04-20T02:14:23.378Z,1023.3
2019-04-20T02:15:24.214Z,1023.3
2019-04-20T02:16:26.425Z,1023.3
2019-04-20T02:17:27.909Z,1023.2
2019-04-20T02:18:31.778Z,1023.3
2019-04-20T02:19:34.622Z,1023.4
2019-04-20T02:20:44.340Z,1023.4
2019-04-20T02:21:38.683Z,1023.3
2019-04-20T02:22:42.951Z,1023.4
2019-04-20T02:23:35.685Z,1023.3
2019-04-20T02:24:29.955Z,1023.4
2019-04-20T02:25:31.043Z,1023.4
2019-04-20T02:26:32.333Z,1023.3
2019-04-20T02:27:38.610Z,1023.4
2019-04-20T02:29:00.471Z,1023.4
2019-04-20T02:29:58.524Z,1023.4
2019-04-20T02:31:18.499Z,1023.4
2019-04-20T02:32:17.535Z,1023.4
2019-04-20T02:33:27.486Z,1023.4
2019-04-20T02:34:21.528Z,1023.4
2019-04-20T02:35:16.024Z,1023.4
2019-04-20T02:36:21.092Z,1023.4
2019-04-20T02:37:46.760Z,1023.5
2019-04-20T02:38:25.058Z,1023.4
2019-04-20T02:39:28.699Z,1023.5
2019-04-20T02:40:28.765Z,1023.4
2019-04-20T02:41:31.127Z,1023.4
2019-04-20T02:42:34.582Z,1023.4
2019-04-20T02:44:33.142Z,1023.4
2019-04-20T02:46:33.708Z,1023.3
2019-04-20T02:47:41.451Z,1023.4
2019-04-20T02:48:29.863Z,1023.4
2019-04-20T02:50:41.707Z,1023.4
2019-04-20T02:51:42.325Z,1023.4
2019-04-20T02:52:56.323Z,1023.4
2019-04-20T02:53:50.824Z,1023.4
2019-04-20T02:56:48.078Z,1023.4
2019-04-20T02:58:49.963Z,1023.4
2019-04-20T03:00:03.290Z,1023.4
2019-04-20T03:00:39.642Z,1023.4
2019-04-20T03:01:40.772Z,1023.5
2019-04-20T03:02:34.591Z,1023.4
2019-04-20T03:03:32.808Z,1023.4
2019-04-20T03:04:35.109Z,1023.3
2019-04-20T03:05:37.277Z,1023.4
2019-04-20T03:06:42.338Z,1023.4
2019-04-20T03:07:52.464Z,1023.4
2019-04-20T03:08:52.981Z,1023.4
2019-04-20T03:09:51.445Z,1023.4
2019-04-20T03:11:06.214Z,1023.4
2019-04-20T03:12:04.812Z,1023.4
2019-04-20T03:13:01.478Z,1023.4
2019-04-20T03:13:59.058Z,1023.4
2019-04-20T03:14:51.649Z,1023.4
2019-04-20T03:16:01.892Z,1023.4
2019-04-20T03:17:03.282Z,1023.4
2019-04-20T03:18:05.109Z,1023.4
2019-04-20T03:18:58.464Z,1023.5
2019-04-20T03:19:58.505Z,1023.4
2019-04-20T03:21:15.047Z,1023.4
2019-04-20T03:22:13.668Z,1023.4
2019-04-20T03:23:23.323Z,1023.4
2019-04-20T03:24:20.395Z,1023.4
2019-04-20T03:25:11.405Z,1023.4
2019-04-20T03:26:17.581Z,1023.4
2019-04-20T03:27:14.832Z,1023.4
2019-04-20T03:28:21.955Z,1023.4
2019-04-20T03:29:12.806Z,1023.4
2019-04-20T03:30:58.818Z,1023.4
2019-04-20T03:31:41.158Z,1023.4
2019-04-20T03:32:50.122Z,1023.4
2019-04-20T03:33:47.486Z,1023.4
2019-04-20T03:35:29.853Z,1023.4
2019-04-20T03:36:38.789Z,1023.4
2019-04-20T03:37:55.415Z,1023.4
2019-04-20T03:38:33.043Z,1023.4
2019-04-20T03:39:28.488Z,1023.4
2019-04-20T03:40:29.646Z,1023.4
2019-04-20T03:41:24.462Z,1023.4
2019-04-20T03:42:18.053Z,1023.4
2019-04-20T03:43:20.082Z,1023.4
2019-04-20T03:44:25.575Z,1023.4
2019-04-20T03:45:23.150Z,1023.4
2019-04-20T03:46:30.951Z,1023.4
2019-04-20T03:47:37.040Z,1023.4
2019-04-20T03:48:41.478Z,1023.4
2019-04-20T03:49:54.864Z,1023.4
2019-04-20T03:50:51.121Z,1023.4
2019-04-20T03:51:53.505Z,1023.4
2019-04-20T03:52:58.408Z,1023.4
2019-04-20T03:53:50.269Z,1023.4
2019-04-20T03:54:43.394Z,1023.4
2019-04-20T03:55:51.610Z,1023.4
2019-04-20T03:56:57.099Z,1023.4
2019-04-20T03:57:57.497Z,1023.4
2019-04-20T03:58:55.473Z,1023.5
2019-04-20T04:00:00.647Z,1023.4
2019-04-20T04:00:59.702Z,1023.4
2019-04-20T04:03:16.568Z,1023.4
2019-04-20T04:04:10.982Z,1023.4
2019-04-20T04:05:06.922Z,1023.4
2019-04-20T04:06:02.887Z,1023.4
2019-04-20T04:06:55.918Z,1023.4
2019-04-20T04:08:04.320Z,1023.4
2019-04-20T04:09:07.373Z,1023.4
2019-04-20T04:10:09.771Z,1023.4
2019-04-20T04:11:15.959Z,1023.4
2019-04-20T04:12:11.404Z,1023.5
2019-04-20T04:13:00.942Z,1023.4
2019-04-20T04:14:01.269Z,1023.4
2019-04-20T04:15:04.047Z,1023.4
2019-04-20T04:16:08.767Z,1023.4
2019-04-20T04:17:06.183Z,1023.4
2019-04-20T04:18:13.521Z,1023.4
2019-04-20T04:19:15.839Z,1023.4
2019-04-20T04:20:14.337Z,1023.4
2019-04-20T04:21:18.386Z,1023.4
2019-04-20T04:22:24.871Z,1023.4
2019-04-20T04:23:32.658Z,1023.4
2019-04-20T04:24:26.134Z,1023.5
2019-04-20T04:25:29.721Z,1023.4
2019-04-20T04:26:38.044Z,1023.5
2019-04-20T04:27:46.626Z,1023.5
2019-04-20T04:28:37.157Z,1023.5
2019-04-20T04:29:45.934Z,1023.5
2019-04-20T04:30:36.776Z,1023.5
2019-04-20T04:31:52.057Z,1023.5
2019-04-20T04:33:06.986Z,1023.5
2019-04-20T04:34:48.589Z,1023.5
2019-04-20T04:35:48.205Z,1023.6
2019-04-20T04:36:53.962Z,1023.6
2019-04-20T04:37:54.970Z,1023.6
2019-04-20T04:39:00.039Z,1023.6
2019-04-20T04:40:10.569Z,1023.6
2019-04-20T04:41:08.461Z,1023.6
2019-04-20T04:42:07.488Z,1023.6
2019-04-20T04:43:04.292Z,1023.6
2019-04-20T04:44:00.691Z,1023.6
2019-04-20T04:44:53.681Z,1023.6
2019-04-20T04:45:46.816Z,1023.6
2019-04-20T04:46:54.110Z,1023.6
2019-04-20T04:47:49.424Z,1023.6
2019-04-20T04:48:51.582Z,1023.6
2019-04-20T04:49:59.981Z,1023.7
2019-04-20T04:50:59.013Z,1023.6
2019-04-20T04:52:02.228Z,1023.7
2019-04-20T04:53:04.585Z,1023.6
2019-04-20T04:54:03.706Z,1023.7
2019-04-20T04:55:15.809Z,1023.7
2019-04-20T04:56:05.750Z,1023.7
2019-04-20T04:57:01.217Z,1023.7
2019-04-20T04:58:02.678Z,1023.7
2019-04-20T04:59:04.363Z,1023.7
2019-04-20T05:00:05.639Z,1023.7
2019-04-20T05:01:11.744Z,1023.7
2019-04-20T05:02:09.586Z,1023.7
2019-04-20T05:03:26.977Z,1023.6
2019-04-20T05:04:33.977Z,1023.7
2019-04-20T05:05:30.993Z,1023.7
2019-04-20T05:06:34.416Z,1023.7
2019-04-20T05:07:28.959Z,1023.7
2019-04-20T05:08:25.292Z,1023.7
2019-04-20T05:09:19.367Z,1023.8
2019-04-20T05:10:20.734Z,1023.8
2019-04-20T05:11:21.748Z,1023.8
2019-04-20T05:12:26.789Z,1023.8
2019-04-20T05:13:26.818Z,1023.8
2019-04-20T05:14:38.747Z,1023.8
2019-04-20T05:15:37.612Z,1023.8
2019-04-20T05:16:46.299Z,1023.8
2019-04-20T05:17:50.247Z,1023.8
2019-04-20T05:19:05.031Z,1023.8
2019-04-20T05:19:53.070Z,1023.8
2019-04-20T05:20:55.355Z,1023.9
2019-04-20T05:21:58.726Z,1023.9
2019-04-20T05:22:51.313Z,1023.9
2019-04-20T05:23:53.364Z,1023.9
2019-04-20T05:25:02.324Z,1024.0
2019-04-20T05:26:03.518Z,1023.9
2019-04-20T05:27:06.017Z,1023.9
2019-04-20T05:28:04.134Z,1024.0
2019-04-20T05:28:53.188Z,1023.9
2019-04-20T05:29:46.837Z,1024.0
2019-04-20T05:30:53.760Z,1023.9
2019-04-20T05:31:54.370Z,1024.0
2019-04-20T05:32:58.660Z,1024.0
2019-04-20T05:34:14.363Z,1023.9
2019-04-20T05:35:15.164Z,1023.9
2019-04-20T05:37:31.289Z,1024.0
2019-04-20T05:38:25.721Z,1024.0
2019-04-20T05:40:22.686Z,1023.9
2019-04-20T05:41:24.005Z,1023.9
2019-04-20T05:42:30.015Z,1023.9
2019-04-20T05:43:26.376Z,1023.9
2019-04-20T05:44:24.831Z,1024.0
2019-04-20T05:45:26.757Z,1023.9
2019-04-20T05:46:42.078Z,1023.9
2019-04-20T05:47:27.054Z,1023.9
2019-04-20T05:48:33.632Z,1023.9
2019-04-20T05:49:29.750Z,1023.9
2019-04-20T05:50:31.605Z,1023.9
2019-04-20T05:51:47.753Z,1023.9
2019-04-20T05:52:42.881Z,1023.9
2019-04-20T05:53:39.931Z,1023.9
2019-04-20T05:54:47.549Z,1023.9
2019-04-20T05:55:46.743Z,1024.0
2019-04-20T05:57:54.484Z,1024.0
2019-04-20T05:58:52.337Z,1024.0
2019-04-20T05:59:55.982Z,1024.0
2019-04-20T06:00:57.108Z,1024.0
2019-04-20T06:01:59.951Z,1024.0
2019-04-20T06:02:49.854Z,1024.1
2019-04-20T06:03:52.797Z,1024.1
2019-04-20T06:05:04.403Z,1024.1
2019-04-20T06:06:03.550Z,1024.1
2019-04-20T06:07:03.980Z,1024.1
2019-04-20T06:08:02.248Z,1024.1
2019-04-20T06:09:07.114Z,1024.0
2019-04-20T06:09:59.846Z,1024.0
2019-04-20T06:11:04.461Z,1024.1
2019-04-20T06:12:17.870Z,1024.1
2019-04-20T06:13:06.346Z,1024.0
2019-04-20T06:14:00.194Z,1024.0
2019-04-20T06:15:05.568Z,1024.0
2019-04-20T06:16:07.785Z,1024.0
2019-04-20T06:17:15.958Z,1024.1
2019-04-20T06:18:13.261Z,1024.1
2019-04-20T06:19:25.835Z,1024.1
2019-04-20T06:20:20.269Z,1024.1
2019-04-20T06:21:27.743Z,1024.2
2019-04-20T06:22:28.472Z,1024.3
2019-04-20T06:23:24.491Z,1024.3
2019-04-20T06:24:37.787Z,1024.3
2019-04-20T06:26:44.227Z,1024.5
2019-04-20T06:27:31.271Z,1024.5
2019-04-20T06:28:28.330Z,1024.5
2019-04-20T06:29:31.004Z,1024.5
2019-04-20T06:30:28.289Z,1024.5
2019-04-20T06:31:36.001Z,1024.6
2019-04-20T06:32:40.472Z,1024.6
2019-04-20T06:33:55.310Z,1024.6
2019-04-20T06:36:01.247Z,1024.7
2019-04-20T06:36:47.241Z,1024.7
2019-04-20T06:37:45.844Z,1024.7
2019-04-20T06:39:49.290Z,1024.7
2019-04-20T06:40:59.408Z,1024.7
2019-04-20T06:42:51.999Z,1024.7
2019-04-20T06:43:56.017Z,1024.7
2019-04-20T06:44:54.623Z,1024.7
2019-04-20T06:45:56.784Z,1024.7
2019-04-20T06:47:04.106Z,1024.7
2019-04-20T06:47:57.864Z,1024.8
2019-04-20T06:49:06.442Z,1024.8
2019-04-20T06:50:03.099Z,1024.8
2019-04-20T06:50:57.218Z,1024.8
2019-04-20T06:52:09.794Z,1024.8
2019-04-20T06:53:14.464Z,1024.8
2019-04-20T06:53:52.598Z,1024.8
2019-04-20T06:55:02.729Z,1024.9
2019-04-20T06:56:14.195Z,1024.9
2019-04-20T06:57:11.731Z,1024.9
2019-04-20T06:58:12.711Z,1024.9
2019-04-20T06:59:20.071Z,1024.9
2019-04-20T07:00:15.722Z,1024.9
2019-04-20T07:01:15.691Z,1024.8
2019-04-20T07:02:27.457Z,1024.9
2019-04-20T07:03:30.585Z,1024.9
2019-04-20T07:04:46.101Z,1024.9
2019-04-20T07:05:22.440Z,1024.9
2019-04-20T07:06:34.103Z,1024.9
2019-04-20T07:07:25.451Z,1024.9
2019-04-20T07:08:45.208Z,1025.0
2019-04-20T07:09:30.858Z,1025.0
2019-04-20T07:10:34.430Z,1025.0
2019-04-20T07:11:29.354Z,1025.0
2019-04-20T07:12:31.188Z,1025.0
2019-04-20T07:13:21.995Z,1025.0
2019-04-20T07:14:27.253Z,1025.0
2019-04-20T07:15:30.266Z,1025.0
2019-04-20T07:16:35.900Z,1025.0
2019-04-20T07:18:43.519Z,1025.0
2019-04-20T07:19:40.234Z,1024.9
2019-04-20T07:20:51.612Z,1024.9
2019-04-20T07:21:51.915Z,1024.9
2019-04-20T07:23:13.518Z,1025.0
2019-04-20T07:23:51.382Z,1025.0
2019-04-20T07:24:52.064Z,1025.0
2019-04-20T07:25:47.621Z,1025.0
2019-04-20T07:26:54.389Z,1025.1
2019-04-20T07:27:55.257Z,1025.1
2019-04-20T07:28:58.841Z,1025.0
2019-04-20T07:29:58.852Z,1025.0
2019-04-20T07:30:58.245Z,1024.9
2019-04-20T07:31:54.022Z,1024.9
2019-04-20T07:32:58.161Z,1025.0
2019-04-20T07:34:04.713Z,1024.9
2019-04-20T07:35:03.590Z,1025.0
2019-04-20T07:36:10.007Z,1025.3
2019-04-20T07:37:26.646Z,1025.4
2019-04-20T07:39:17.090Z,1025.2
2019-04-20T07:40:11.628Z,1025.3
2019-04-20T07:41:14.227Z,1025.3
2019-04-20T07:42:19.177Z,1025.4
2019-04-20T07:43:09.198Z,1025.5
2019-04-20T07:44:18.317Z,1025.5
2019-04-20T07:45:24.070Z,1025.5
2019-04-20T07:46:37.548Z,1025.7
2019-04-20T07:47:22.056Z,1025.6
2019-04-20T07:48:21.317Z,1025.7
2019-04-20T07:50:19.603Z,1025.5
2019-04-20T07:51:12.177Z,1025.4
2019-04-20T07:52:06.187Z,1025.4
2019-04-20T07:53:25.375Z,1025.6
2019-04-20T07:54:40.213Z,1025.8
2019-04-20T07:55:37.108Z,1025.5
2019-04-20T07:56:39.384Z,1025.0
2019-04-20T07:57:31.271Z,1024.9
2019-04-20T07:58:27.328Z,1025.0
2019-04-20T07:59:27.573Z,1025.1
2019-04-20T08:00:51.420Z,1025.3
2019-04-20T08:01:45.261Z,1025.2
2019-04-20T08:02:42.625Z,1025.3
2019-04-20T08:03:44.497Z,1025.5
2019-04-20T08:04:45.885Z,1025.5
2019-04-20T08:05:36.709Z,1025.5
2019-04-20T08:06:35.342Z,1025.6
2019-04-20T08:07:39.208Z,1025.6
2019-04-20T08:08:43.927Z,1025.6
2019-04-20T08:09:37.917Z,1025.5
2019-04-20T08:10:47.369Z,1025.5
2019-04-20T08:11:54.940Z,1025.4
2019-04-20T08:13:04.889Z,1025.2
2019-04-20T08:13:57.950Z,1025.1
2019-04-20T08:15:04.917Z,1024.9
2019-04-20T08:16:07.292Z,1025.2
2019-04-20T08:17:14.406Z,1025.3
2019-04-20T08:18:04.490Z,1025.3
2019-04-20T08:19:01.358Z,1025.3
2019-04-20T08:20:05.708Z,1025.3
2019-04-20T08:21:11.403Z,1025.2
2019-04-20T08:22:08.186Z,1025.1
2019-04-20T08:23:13.020Z,1025.1
2019-04-20T08:24:08.614Z,1025.1
2019-04-20T08:25:06.726Z,1025.2
2019-04-20T08:26:03.930Z,1025.2
2019-04-20T08:26:57.936Z,1025.2
2019-04-20T08:27:56.987Z,1025.2
2019-04-20T08:29:02.519Z,1025.3
2019-04-20T08:30:20.171Z,1025.3
2019-04-20T08:31:15.301Z,1025.1
2019-04-20T08:32:12.373Z,1025.3
2019-04-20T08:33:19.836Z,1025.2
2019-04-20T08:34:35.348Z,1025.1
2019-04-20T08:35:46.439Z,1025.1
2019-04-20T08:36:43.274Z,1025.2
2019-04-20T08:37:31.072Z,1025.1
2019-04-20T08:39:08.266Z,1025.0
2019-04-20T08:40:43.639Z,1024.9
2019-04-20T08:41:48.351Z,1024.8
2019-04-20T08:43:00.201Z,1025.0
2019-04-20T08:45:00.146Z,1025.1
2019-04-20T08:45:58.896Z,1025.1
2019-04-20T08:47:01.826Z,1025.2
2019-04-20T08:47:57.011Z,1025.3
2019-04-20T08:48:50.909Z,1025.7
2019-04-20T08:49:57.109Z,1025.9
2019-04-20T08:51:01.725Z,1025.9
2019-04-20T08:52:01.834Z,1025.9
2019-04-20T08:53:08.882Z,1025.9
2019-04-20T08:53:56.941Z,1025.8
2019-04-20T08:55:07.765Z,1025.9
2019-04-20T08:55:57.127Z,1026.1
2019-04-20T08:56:51.388Z,1026.2
2019-04-20T08:57:46.862Z,1026.3
2019-04-20T08:58:48.379Z,1026.4
2019-04-20T08:59:51.038Z,1026.4
2019-04-20T09:00:56.525Z,1026.3
2019-04-20T09:01:53.430Z,1026.4
2019-04-20T09:02:59.246Z,1026.4
2019-04-20T09:04:02.477Z,1026.6
2019-04-20T09:05:03.171Z,1026.7
2019-04-20T09:06:05.548Z,1026.6
2019-04-20T09:07:08.334Z,1026.5
2019-04-20T09:08:09.279Z,1026.8
2019-04-20T09:09:36.298Z,1026.9
2019-04-20T09:10:28.188Z,1027.0
2019-04-20T09:11:19.658Z,1027.1
2019-04-20T09:12:21.183Z,1027.3
2019-04-20T09:13:19.730Z,1027.7
2019-04-20T09:14:10.527Z,1027.7
2019-04-20T09:15:10.581Z,1028.0
2019-04-20T09:16:13.044Z,1028.4
2019-04-20T09:17:22.997Z,1028.7
2019-04-20T09:18:22.620Z,1029.0
2019-04-20T09:19:27.140Z,1028.9
2019-04-20T09:20:29.258Z,1029.2
2019-04-20T09:21:29.663Z,1029.5
2019-04-20T09:22:32.270Z,1028.2
2019-04-20T09:23:36.709Z,1025.8
2019-04-20T09:24:44.649Z,1024.8
2019-04-20T09:25:53.610Z,1024.8
2019-04-20T09:26:42.251Z,1024.7
2019-04-20T09:27:34.762Z,1024.7
2019-04-20T09:28:37.355Z,1024.7
2019-04-20T09:29:40.721Z,1024.7
2019-04-20T09:30:47.048Z,1024.8
2019-04-20T09:31:47.062Z,1024.8
2019-04-20T09:32:51.731Z,1024.8
2019-04-20T09:33:53.070Z,1026.0
2019-04-20T09:35:53.623Z,1028.2
2019-04-20T09:36:49.374Z,1029.6
2019-04-20T09:37:59.968Z,1031.1
2019-04-20T09:38:58.321Z,1034.4
2019-04-20T09:40:10.840Z,1035.5
2019-04-20T09:41:01.549Z,1036.2
2019-04-20T09:42:01.914Z,1036.0
2019-04-20T09:42:51.354Z,1035.2
2019-04-20T09:43:54.060Z,1034.6
2019-04-20T09:44:58.957Z,1034.9
2019-04-20T09:46:01.393Z,1035.4
2019-04-20T09:47:00.315Z,1036.7
2019-04-20T09:48:01.693Z,1037.5
2019-04-20T09:49:18.062Z,1036.7
2019-04-20T09:50:24.744Z,1035.8
2019-04-20T09:51:30.708Z,1036.3
2019-04-20T09:52:27.908Z,1037.8
2019-04-20T09:53:26.901Z,1038.6
2019-04-20T09:54:34.340Z,1039.1
2019-04-20T09:55:29.435Z,1038.9
2019-04-20T09:56:33.364Z,1039.0
2019-04-20T09:57:39.054Z,1031.4
2019-04-20T09:58:30.921Z,1028.4
2019-04-20T09:59:46.417Z,1024.8
2019-04-20T10:01:33.965Z,1027.6
2019-04-20T10:02:30.938Z,1026.2
2019-04-20T10:03:29.036Z,1024.6
2019-04-20T10:04:31.238Z,1024.6
2019-04-20T10:05:31.537Z,1024.7
2019-04-20T10:06:35.892Z,1024.6
2019-04-20T10:07:36.028Z,1024.5
2019-04-20T10:08:44.726Z,1024.6
2019-04-20T10:09:39.843Z,1031.2
2019-04-20T10:10:41.731Z,1033.7
2019-04-20T10:11:42.518Z,1030.5
2019-04-20T10:12:41.845Z,1033.6
2019-04-20T10:13:43.887Z,1034.5
2019-04-20T10:14:44.758Z,1034.7
2019-04-20T10:15:47.809Z,1035.8
2019-04-20T10:16:49.599Z,1031.5
2019-04-20T10:17:49.915Z,1026.5
2019-04-20T10:18:53.484Z,1031.7
2019-04-20T10:19:53.682Z,1024.5
2019-04-20T10:20:53.936Z,1024.5
2019-04-20T10:21:55.256Z,1028.4
2019-04-20T10:22:58.461Z,1026.4
2019-04-20T10:24:00.682Z,1025.4
2019-04-20T10:25:00.771Z,1024.5
2019-04-20T10:26:02.595Z,1025.0
2019-04-20T10:27:03.827Z,1024.4
2019-04-20T10:28:05.548Z,1024.4
2019-04-20T10:29:07.734Z,1024.3
2019-04-20T10:30:08.291Z,1024.3
2019-04-20T10:31:10.575Z,1024.3
2019-04-20T10:32:14.532Z,1024.3
2019-04-20T10:33:13.337Z,1024.3
2019-04-20T10:34:15.688Z,1024.3
2019-04-20T10:35:18.593Z,1024.2
2019-04-20T10:36:19.463Z,1024.2
2019-04-20T10:37:19.737Z,1024.3
2019-04-20T10:38:21.407Z,1024.3
2019-04-20T10:39:22.678Z,1025.0
2019-04-20T10:40:38.056Z,1026.7
2019-04-20T10:41:36.130Z,1029.9
2019-04-20T10:42:28.094Z,1029.7
2019-04-20T10:43:30.219Z,1027.7
2019-04-20T10:44:31.134Z,1027.9
2019-04-20T10:45:33.106Z,1028.5
2019-04-20T10:46:35.034Z,1025.6
2019-04-20T10:47:37.128Z,1025.3
2019-04-20T10:48:45.182Z,1024.3
2019-04-20T10:49:40.859Z,1024.3
2019-04-20T10:50:43.120Z,1024.4
2019-04-20T10:51:43.955Z,1024.8
2019-04-20T10:52:47.653Z,1024.9
2019-04-20T10:53:48.621Z,1024.9
2019-04-20T10:54:50.273Z,1025.0
2019-04-20T10:55:53.498Z,1025.2
2019-04-20T10:56:55.312Z,1024.9
2019-04-20T10:57:55.665Z,1025.1
2019-04-20T10:58:57.917Z,1025.2
2019-04-20T10:59:59.597Z,1025.1
2019-04-20T11:01:00.152Z,1024.8
2019-04-20T11:02:03.519Z,1024.5
2019-04-20T11:03:03.827Z,1024.3
2019-04-20T11:04:05.245Z,1024.4
2019-04-20T11:05:08.651Z,1024.3
2019-04-20T11:06:09.402Z,1024.4
2019-04-20T11:07:12.391Z,1024.3
2019-04-20T11:08:12.738Z,1024.3
2019-04-20T11:09:16.238Z,1024.3
2019-04-20T11:10:25.178Z,1024.4
2019-04-20T11:11:23.817Z,1024.2
2019-04-20T11:12:20.099Z,1024.4
2019-04-20T11:13:21.442Z,1024.3
2019-04-20T11:14:28.049Z,1024.3
2019-04-20T11:15:24.175Z,1024.2
2019-04-20T11:16:26.341Z,1024.4
2019-04-20T11:17:29.766Z,1024.2
2019-04-20T11:18:29.331Z,1024.2
2019-04-20T11:19:31.472Z,1024.1
2019-04-20T11:20:33.104Z,1024.1
2019-04-20T11:21:34.364Z,1024.1
2019-04-20T11:22:35.009Z,1024.2
2019-04-20T11:23:36.432Z,1024.1
2019-04-20T11:24:40.482Z,1024.0
2019-04-20T11:25:40.573Z,1024.1
2019-04-20T11:26:43.452Z,1024.0
2019-04-20T11:27:43.911Z,1024.0
2019-04-20T11:28:46.133Z,1024.0
2019-04-20T11:29:46.441Z,1024.0
2019-04-20T11:30:48.053Z,1024.0
2019-04-20T11:31:51.549Z,1024.2
2019-04-20T11:32:52.298Z,1024.2
2019-04-20T11:33:54.213Z,1024.0
2019-04-20T11:34:56.478Z,1024.3
2019-04-20T11:35:57.041Z,1024.0
2019-04-20T11:36:59.145Z,1024.0
2019-04-20T11:38:00.879Z,1023.9
2019-04-20T11:39:01.334Z,1023.9
2019-04-20T11:40:03.243Z,1023.9
2019-04-20T11:41:11.282Z,1023.8
2019-04-20T11:42:05.762Z,1023.7
2019-04-20T11:43:07.903Z,1023.8
2019-04-20T11:44:09.553Z,1023.7
2019-04-20T11:45:10.908Z,1023.6
2019-04-20T11:46:12.360Z,1023.6
2019-04-20T11:47:14.598Z,1023.7
2019-04-20T11:48:15.839Z,1023.5
2019-04-20T11:49:17.399Z,1023.6
2019-04-20T11:50:17.855Z,1023.5
2019-04-20T11:51:19.265Z,1023.5
2019-04-20T11:52:22.823Z,1023.5
2019-04-20T11:53:26.516Z,1023.5
2019-04-20T11:54:24.576Z,1023.5
2019-04-20T11:55:26.613Z,1023.4
2019-04-20T11:56:33.358Z,1023.5
2019-04-20T11:57:29.359Z,1023.4
2019-04-20T11:58:30.785Z,1023.3
2019-04-20T11:59:32.773Z,1023.3
2019-04-20T12:00:40.510Z,1023.3
2019-04-20T12:01:43.193Z,1023.3
2019-04-20T12:02:40.912Z,1023.3
2019-04-20T12:03:50.972Z,1023.3
2019-04-20T12:04:48.894Z,1023.3
2019-04-20T12:05:46.004Z,1023.3
2019-04-20T12:06:43.346Z,1023.2
2019-04-20T12:07:44.796Z,1023.2
2019-04-20T12:08:47.067Z,1023.3
2019-04-20T12:09:47.450Z,1023.2
2019-04-20T12:10:54.089Z,1023.2
2019-04-20T12:12:02.999Z,1023.2
2019-04-20T12:12:55.145Z,1023.2
2019-04-20T12:13:54.523Z,1023.2
2019-04-20T12:14:56.755Z,1023.1
2019-04-20T12:15:57.187Z,1023.1
2019-04-20T12:16:59.513Z,1023.1
2019-04-20T12:18:00.134Z,1023.1
2019-04-20T12:19:02.247Z,1023.1
2019-04-20T12:20:03.894Z,1023.0
2019-04-20T12:21:05.023Z,1023.0
2019-04-20T12:22:07.546Z,1023.0
2019-04-20T12:23:08.550Z,1023.0
2019-04-20T12:24:09.957Z,1023.0
2019-04-20T12:25:12.015Z,1023.0
2019-04-20T12:26:12.994Z,1023.0
2019-04-20T12:27:14.531Z,1023.0
2019-04-20T12:28:15.738Z,1023.0
2019-04-20T12:29:16.703Z,1023.0
2019-04-20T12:30:19.580Z,1023.1
2019-04-20T12:31:22.795Z,1023.0
2019-04-20T12:32:22.705Z,1023.0
2019-04-20T12:33:24.345Z,1022.9
2019-04-20T12:34:26.395Z,1022.9
2019-04-20T12:35:27.183Z,1022.9
2019-04-20T12:36:28.666Z,1022.9
2019-04-20T12:37:31.252Z,1022.9
2019-04-20T12:38:32.827Z,1022.9
2019-04-20T12:39:33.219Z,1022.9
2019-04-20T12:40:35.447Z,1022.8
2019-04-20T12:41:43.319Z,1022.9
2019-04-20T12:42:39.108Z,1022.8
2019-04-20T12:43:39.679Z,1022.9
2019-04-20T12:44:41.885Z,1022.8
2019-04-20T12:45:44.032Z,1022.8
2019-04-20T12:46:45.768Z,1022.8
2019-04-20T12:47:47.993Z,1022.8
2019-04-20T12:48:49.374Z,1022.9
2019-04-20T12:49:51.571Z,1022.8
2019-04-20T12:50:53.218Z,1022.8
2019-04-20T12:51:57.990Z,1022.8
2019-04-20T12:52:54.912Z,1022.8
2019-04-20T12:53:58.308Z,1022.8
2019-04-20T12:55:00.961Z,1022.8
2019-04-20T12:55:59.875Z,1022.8
2019-04-20T12:57:02.625Z,1022.8
2019-04-20T12:58:02.893Z,1022.7
2019-04-20T12:59:05.382Z,1022.7
2019-04-20T13:00:05.866Z,1022.6
2019-04-20T13:01:07.510Z,1022.7
2019-04-20T13:02:09.232Z,1022.7
2019-04-20T13:03:11.613Z,1022.7
2019-04-20T13:04:12.136Z,1022.7
2019-04-20T13:05:13.482Z,1022.6
2019-04-20T13:06:16.237Z,1022.6
2019-04-20T13:07:17.665Z,1022.6
2019-04-20T13:08:23.173Z,1022.7
2019-04-20T13:09:20.834Z,1022.6
2019-04-20T13:10:21.458Z,1022.5